createdAt,value
2023-03-02T00:12:36.698Z,12.10
2023-03-02T00:27:58.373Z,11.80
2023-03-02T00:43:19.549Z,9.43
2023-03-02T00:58:40.934Z,9.47
2023-03-02T01:14:02.225Z,11.10
2023-03-02T01:29:23.246Z,11.30
2023-03-02T01:44:44.732Z,11.90
2023-03-02T02:00:08.713Z,11.50
2023-03-02T02:15:30.024Z,10.00
2023-03-02T02:30:51.864Z,10.47
2023-03-02T02:46:13.310Z,10.70
2023-03-02T03:01:34.662Z,10.17
2023-03-02T03:16:56.154Z,11.90
2023-03-02T03:32:17.630Z,8.87
2023-03-02T03:47:38.790Z,9.50
2023-03-02T04:03:00.248Z,12.23
2023-03-02T04:18:21.692Z,9.77
2023-03-02T04:33:42.700Z,10.07
2023-03-02T04:49:04.636Z,5.73
2023-03-02T05:04:26.013Z,8.53
2023-03-02T05:19:47.004Z,10.20
2023-03-02T05:35:08.227Z,8.27
2023-03-02T05:50:29.515Z,10.03
2023-03-02T06:05:52.629Z,8.37
2023-03-02T06:21:13.979Z,8.37
2023-03-02T06:36:35.600Z,13.07
2023-03-02T06:51:56.910Z,11.80
2023-03-02T07:07:18.419Z,12.30
2023-03-02T07:22:40.055Z,10.77
2023-03-02T07:38:01.578Z,13.90
2023-03-02T07:53:22.763Z,19.63
2023-03-02T08:08:44.095Z,22.30
2023-03-02T08:24:05.377Z,11.83
2023-03-02T08:39:30.504Z,10.00
2023-03-02T08:54:51.555Z,27.13
2023-03-02T09:10:13.303Z,19.70
2023-03-02T09:25:34.421Z,34.83
2023-03-02T09:41:14.340Z,16.50
2023-03-02T09:56:38.125Z,15.37
2023-03-02T10:12:02.601Z,28.53
2023-03-02T10:27:28.414Z,18.50
2023-03-02T10:42:49.599Z,10.53
2023-03-02T10:58:26.229Z,14.30
2023-03-02T11:13:47.351Z,8.53
2023-03-02T11:29:14.505Z,7.33
2023-03-02T11:44:36.035Z,5.33
2023-03-02T11:59:58.747Z,7.73
2023-03-02T12:15:30.908Z,7.83
2023-03-02T12:31:03.118Z,7.50
2023-03-02T12:46:30.491Z,6.20
2023-03-02T13:01:51.776Z,4.67
2023-03-02T13:17:23.108Z,6.63
2023-03-02T13:32:44.697Z,4.30
2023-03-02T13:48:18.375Z,10.33
2023-03-02T14:03:39.702Z,4.37
2023-03-02T14:19:01.097Z,4.37
2023-03-02T14:34:22.703Z,5.33
2023-03-02T14:49:44.240Z,7.53
2023-03-02T15:05:05.921Z,30.63
2023-03-02T15:20:27.128Z,14.17
2023-03-02T15:35:54.342Z,20.87
2023-03-02T15:51:16.498Z,25.00
2023-03-02T16:06:37.627Z,20.73
2023-03-02T16:21:59.046Z,32.40
2023-03-02T16:37:20.431Z,38.43
2023-03-02T16:52:41.677Z,45.00
2023-03-02T17:08:05.468Z,46.70
2023-03-02T17:23:27.408Z,18.53
2023-03-02T17:38:48.545Z,24.47
2023-03-02T17:54:09.920Z,20.97
2023-03-02T18:09:31.473Z,19.93
2023-03-02T18:24:53.199Z,33.57
2023-03-02T18:40:14.406Z,22.80
2023-03-02T18:55:37.477Z,20.00
2023-03-02T19:10:59.100Z,18.67
2023-03-02T19:26:20.369Z,15.30
2023-03-02T19:41:41.763Z,26.13
2023-03-02T19:57:03.860Z,32.07
2023-03-02T20:12:25.462Z,31.30
2023-03-02T20:27:49.370Z,37.20
2023-03-02T20:43:10.537Z,37.80
2023-03-02T20:58:32.153Z,32.83
2023-03-02T21:13:55.566Z,26.03
2023-03-02T21:29:17.143Z,22.47
2023-03-02T21:44:38.538Z,30.07
2023-03-02T22:00:00.308Z,31.63
2023-03-02T22:15:24.493Z,22.50
2023-03-02T22:30:45.808Z,25.23
2023-03-02T22:46:17.699Z,21.07
2023-03-02T23:01:42.880Z,28.17
2023-03-02T23:17:09.402Z,19.33
2023-03-02T23:32:30.918Z,21.00
2023-03-02T23:47:52.533Z,24.70
